Date,TemperatureHighF,TemperatureAvgF,TemperatureLowF,DewpointHighF,DewpointAvgF,DewpointLowF,HumidityHigh,HumidityAvg,HumidityLow,PressureMaxIn,PressureMinIn,WindSpeedMaxMPH,WindSpeedAvgMPH,GustSpeedMaxMPH,PrecipitationSumIn
2013-1-1,23.9,19.2,9.9,18.9,12.5,4.7,84,75,61,30.18,30.05,9,4,0,0.00
2013-1-2,28.6,16.2,5.2,18.0,9.1,0.7,84,74,54,30.19,30.08,7,2,0,0.00
2013-1-3,35.6,25.7,14.5,28.5,20.4,9.8,88,80,72,30.28,30.09,6,2,0,0.08
2013-1-4,37.4,25.1,11.8,26.2,18.3,7.2,85,75,62,30.28,30.17,8,2,0,0.02
2013-1-5,40.6,31.5,20.3,33.0,25.9,16.5,86,80,70,30.17,29.92,9,2,0,0.02
2013-1-6,36.7,29.2,19.9,31.7,23.0,16.1,87,77,65,30.25,29.90,13,4,0,0.00
2013-1-7,41.0,29.4,18.7,29.9,23.6,15.5,89,79,63,30.26,30.01,14,5,0,0.00
2013-1-8,49.1,36.1,25.3,36.8,29.3,22.0,87,77,58,30.06,29.95,10,4,0,0.00
2013-1-9,52.7,40.5,30.9,38.0,33.2,27.5,91,76,50,30.35,29.99,8,2,0,0.00
2013-1-10,54.3,42.0,30.2,53.7,40.6,27.0,98,95,85,30.34,29.62,12,6,0,0.32
2013-1-11,59.7,54.0,48.4,56.1,50.7,47.9,98,89,76,29.70,29.58,14,6,0,0.25
2013-1-12,54.9,44.8,29.3,50.0,40.1,27.2,94,84,64,29.82,29.63,14,5,0,0.28
2013-1-13,29.3,21.7,14.5,27.3,17.8,10.5,92,85,79,30.20,29.76,9,4,0,0.00
2013-1-14,25.2,17.9,13.1,18.1,12.7,8.8,85,80,73,30.34,30.21,7,2,0,0.00
2013-1-15,28.4,21.3,12.0,21.7,16.5,8.4,87,81,72,30.30,29.98,7,3,0,0.00
2013-1-16,39.4,29.7,16.7,27.8,22.5,13.5,88,75,59,29.99,29.83,9,2,0,0.03
2013-1-17,36.9,31.2,21.7,28.9,23.8,17.2,90,75,53,30.32,29.95,13,4,0,0.00
2013-1-18,44.6,33.3,20.8,32.8,25.6,17.3,88,74,57,30.33,29.93,17,5,0,0.00
2013-1-19,57.2,44.6,34.7,41.8,34.1,28.9,80,67,52,29.93,29.71,16,6,0,0.00
2013-1-20,40.3,24.1,18.7,31.3,12.7,8.6,75,62,50,30.21,29.93,13,5,0,0.00
2013-1-21,18.7,13.5,8.6,12.0,0.2,-5.5,76,55,41,30.23,30.12,12,6,0,0.00
2013-1-22,17.2,11.0,4.6,2.7,-2.6,-5.8,67,54,41,30.32,30.22,8,3,0,0.00
2013-1-23,38.1,24.9,12.7,20.7,12.0,1.4,69,58,47,30.23,29.97,13,4,0,0.00
2013-1-24,26.1,18.6,9.0,10.6,5.7,-2.4,74,57,49,30.48,30.18,14,8,0,0.00
2013-1-25,40.6,29.7,23.4,23.0,16.2,7.1,70,57,47,30.15,29.92,10,4,0,0.00
2013-1-26,34.7,25.0,14.9,20.9,12.7,6.0,77,60,43,30.26,30.06,8,4,0,0.00
2013-1-27,45.3,33.1,21.9,44.2,29.5,16.4,97,87,74,30.18,29.79,14,8,0,0.10
2013-1-28,65.8,55.9,45.7,62.2,54.4,44.6,98,95,85,29.79,29.67,13,6,0,0.01
2013-1-29,65.7,61.0,55.4,61.8,59.1,54.8,98,94,86,29.66,29.26,17,7,0,1.73
2013-1-30,58.6,38.8,22.8,58.0,35.3,14.8,98,87,69,29.68,29.16,16,7,0,0.20
2013-1-31,27.7,19.6,7.0,18.9,10.6,-3.4,78,68,59,30.19,29.69,17,7,0,0.00
2013-2-1,23.2,14.1,3.7,18.4,3.6,-4.9,85,63,51,30.32,30.03,11,5,0,0.00
2013-2-2,36.9,25.8,20.1,27.3,18.8,14.0,87,75,66,30.05,29.89,10,4,0,0.00
2013-2-3,33.3,26.6,20.1,24.4,18.5,14.6,91,73,46,29.98,29.83,14,5,0,0.00
2013-2-4,49.6,34.0,24.8,32.7,25.2,18.8,82,71,51,29.86,29.62,12,6,0,0.00
2013-2-5,47.8,34.8,24.6,35.7,27.9,20.7,87,76,60,29.97,29.69,10,3,0,0.00
2013-2-6,48.6,35.1,22.5,34.9,28.8,20.0,92,79,57,30.09,29.93,10,4,0,0.00
2013-2-7,41.9,38.0,33.6,40.6,35.0,29.6,96,89,80,29.94,29.69,12,4,0,0.48
2013-2-8,36.3,30.9,28.4,33.9,26.3,23.2,91,83,78,30.24,29.87,13,6,0,0.00
2013-2-9,39.2,33.5,28.4,33.7,27.9,23.9,84,80,73,30.22,29.88,14,7,0,0.02
2013-2-10,51.3,44.4,37.6,50.5,42.2,33.8,97,92,83,29.89,29.41,22,10,0,0.60
2013-2-11,46.9,38.5,28.2,37.0,28.7,23.7,83,68,56,29.99,29.54,14,6,0,0.00
2013-2-12,41.2,31.8,22.5,30.0,25.7,19.8,91,79,60,30.01,29.78,6,1,0,0.00
2013-2-13,53.2,37.9,27.7,36.2,29.9,25.7,92,75,45,29.80,29.61,7,2,0,0.00
2013-2-14,50.2,40.1,31.8,36.7,32.4,27.5,86,75,56,29.89,29.60,10,4,0,0.00
2013-2-15,37.6,30.9,23.0,29.2,18.7,13.2,86,62,38,30.10,29.90,10,6,0,0.00
2013-2-16,32.7,23.9,16.0,13.7,11.6,7.9,74,60,42,30.11,29.99,11,4,0,0.00
2013-2-17,40.6,27.7,13.3,24.9,18.1,8.0,81,68,50,30.07,29.77,12,7,0,0.00
2013-2-18,57.4,43.1,29.5,48.8,36.7,24.8,95,78,64,29.77,29.35,21,10,0,0.21
2013-2-19,29.1,23.9,19.0,24.9,14.3,7.1,84,67,58,30.12,29.66,16,7,0,0.00
2013-2-20,24.8,18.3,8.2,15.1,7.6,0.7,81,63,49,30.27,30.11,9,4,0,0.00
2013-2-21,31.5,23.7,16.0,30.2,20.0,12.0,95,86,76,30.20,29.69,21,10,0,0.00
2013-2-22,48.2,32.2,25.9,47.7,28.9,20.3,98,88,77,29.88,29.63,10,4,0,0.14
2013-2-23,31.8,24.5,17.2,21.4,18.0,13.5,87,76,63,29.88,29.82,6,2,0,0.00
2013-2-24,40.6,28.0,14.4,26.7,21.2,10.7,88,76,55,29.99,29.86,8,2,0,0.00
2013-2-25,44.2,35.5,26.2,35.8,29.9,23.1,90,80,68,29.96,29.61,14,8,0,0.00
2013-2-26,34.5,33.1,32.2,33.2,31.5,30.2,96,94,84,29.60,29.24,19,7,0,0.57
2013-2-27,34.5,32.4,31.3,31.6,30.4,29.3,96,93,87,29.67,29.43,8,4,0,0.19
2013-2-28,35.6,33.1,31.6,32.0,30.7,29.3,94,91,85,29.92,29.66,8,4,0,0.04
2013-3-1,31.8,29.4,25.2,30.3,25.8,21.6,94,86,78,30.05,29.88,13,6,0,0.01
2013-3-2,32.9,27.0,19.2,22.9,18.5,14.1,85,71,53,30.07,30.01,13,6,0,0.00
2013-3-3,37.0,27.1,15.6,24.6,18.0,11.8,86,70,46,30.05,29.91,6,2,0,0.00
2013-3-4,38.8,34.0,29.1,31.6,28.1,24.0,89,79,73,29.93,29.70,22,11,0,0.01
2013-3-5,35.8,32.8,30.4,31.2,28.5,24.1,93,84,75,29.89,29.65,13,7,0,0.04
2013-3-6,32.5,29.2,26.4,25.3,23.2,21.1,82,78,73,30.21,29.89,16,7,0,0.00
2013-3-7,38.8,30.1,26.2,30.3,25.2,21.1,90,82,66,30.24,30.19,8,3,0,0.00
2013-3-8,48.7,37.5,26.1,38.2,31.8,23.8,92,81,66,30.30,30.06,12,6,0,0.00
2013-3-9,57.4,45.9,37.2,45.9,38.3,32.8,89,75,59,30.07,29.64,16,8,0,0.05
2013-3-10,55.8,51.6,47.7,52.8,48.3,42.1,96,89,69,29.64,29.47,15,5,0,1.25
2013-3-11,48.7,36.3,32.0,46.8,32.8,26.8,93,87,80,29.78,29.49,8,5,0,0.00
2013-3-12,45.3,34.8,26.6,33.2,26.8,21.4,88,73,59,30.01,29.78,14,5,0,0.00
2013-3-13,39.7,29.8,23.7,21.5,18.2,16.3,75,62,42,30.24,30.01,11,6,0,0.00
2013-3-14,47.1,34.1,21.9,35.8,26.4,17.1,88,74,57,30.24,29.96,12,4,0,0.00
2013-3-15,63.3,46.0,28.0,47.7,37.8,25.7,93,75,52,29.96,29.49,11,4,0,0.00
2013-3-16,46.6,40.3,34.7,43.2,35.8,30.1,96,84,70,29.93,29.45,12,6,0,0.00
2013-3-17,40.5,35.0,30.9,32.9,28.8,24.7,90,78,66,29.98,29.70,17,9,0,0.06
2013-3-18,47.7,36.6,28.4,39.1,32.1,21.8,95,84,58,29.84,29.52,14,6,0,0.04
2013-3-19,45.0,32.5,24.6,21.3,18.2,14.7,77,57,33,30.02,29.81,9,5,0,0.00
2013-3-20,33.1,27.4,20.5,20.8,12.0,6.7,70,53,34,30.08,29.95,11,7,0,0.00
2013-3-21,36.1,25.1,15.4,16.1,11.3,7.1,75,56,38,29.98,29.84,8,3,0,0.00
2013-3-22,43.5,32.2,17.8,24.3,19.1,13.3,85,61,37,29.92,29.83,9,2,0,0.00
2013-3-23,53.4,42.5,34.3,29.8,26.4,22.8,70,54,36,29.92,29.74,14,6,0,0.00
2013-3-24,36.1,31.2,30.0,30.1,28.6,25.6,94,90,67,29.79,29.40,17,10,0,0.00
2013-3-25,39.0,32.2,27.9,28.6,27.0,25.4,93,81,65,30.01,29.57,13,7,0,0.16
2013-3-26,40.6,34.8,30.4,28.5,25.8,23.8,83,70,54,30.18,30.01,10,4,0,0.00
2013-3-27,45.7,35.2,26.2,27.3,23.7,20.3,81,64,46,30.24,30.16,7,2,0,0.00
2013-3-28,48.7,35.2,20.7,35.1,26.9,17.2,89,73,49,30.25,30.13,9,3,0,0.00
2013-3-29,59.5,45.0,33.8,40.1,34.9,29.6,85,69,47,30.15,30.05,10,4,0,0.00
2013-3-30,55.8,45.4,32.4,46.9,39.9,29.5,92,81,64,30.07,29.75,10,4,0,0.00
2013-3-31,64.2,51.8,43.2,49.6,43.4,30.9,94,75,51,29.80,29.65,11,4,0,0.00
2013-4-1,46.8,39.7,32.5,32.6,23.0,17.5,70,52,32,30.09,29.80,12,6,0,0.00
2013-4-2,49.1,36.9,24.8,20.8,17.3,11.7,72,48,23,30.20,30.10,8,3,0,0.00
2013-4-3,52.2,40.2,27.1,24.4,21.2,18.0,69,48,29,30.27,30.14,14,6,0,0.00
2013-4-4,61.2,46.0,29.5,29.7,23.0,17.4,72,44,19,30.12,29.86,7,2,0,0.00
2013-4-5,63.0,50.4,38.1,36.2,29.9,23.9,77,49,23,30.04,29.87,14,4,0,0.00
2013-4-6,72.9,59.3,45.1,46.6,38.5,27.6,64,47,32,29.91,29.52,25,9,0,0.02
2013-4-7,77.0,63.2,47.1,56.8,45.4,41.3,85,56,31,29.78,29.61,11,3,0,0.00
2013-4-8,77.0,66.0,57.0,62.2,58.2,54.6,93,77,57,29.71,29.54,14,6,0,0.21
2013-4-9,78.1,70.1,62.1,63.3,60.8,57.4,85,73,60,29.70,29.63,19,7,0,0.01
2013-4-10,70.9,58.6,45.7,66.2,55.9,44.9,97,91,80,29.70,29.47,16,7,0,2.40
2013-4-11,51.4,47.7,39.2,50.9,44.2,32.8,98,88,76,29.55,29.43,10,5,0,0.10
2013-4-12,44.1,41.1,37.4,36.5,34.3,31.1,80,77,71,29.81,29.52,10,4,0,0.00
2013-4-13,57.0,47.1,36.7,42.0,36.1,30.5,85,67,46,29.88,29.77,11,4,0,0.00
2013-4-14,76.8,60.9,46.0,55.0,48.2,40.8,89,65,41,29.80,29.46,17,8,0,0.02
2013-4-15,63.9,57.0,47.5,61.8,53.7,45.8,95,89,66,29.79,29.56,14,5,0,0.67
2013-4-16,49.8,46.7,43.2,46.6,44.2,41.3,96,91,85,30.03,29.76,14,6,0,1.62
2013-4-17,75.4,53.7,45.5,69.9,51.0,41.6,97,91,79,30.02,29.54,16,8,0,0.09
2013-4-18,72.1,58.2,40.8,67.4,55.8,34.7,98,92,78,29.56,29.35,17,7,0,3.02
2013-4-19,46.6,40.3,37.0,35.4,32.1,29.4,82,72,60,29.90,29.52,11,6,0,0.00
2013-4-20,53.2,41.2,29.5,34.9,30.4,25.6,86,67,45,30.22,29.90,8,3,0,0.00
2013-4-21,59.4,47.8,37.2,43.9,37.7,31.9,83,69,51,30.30,30.13,16,8,0,0.00
2013-4-22,70.5,56.3,39.4,49.9,42.9,35.3,85,64,38,30.15,29.85,11,5,0,0.00
2013-4-23,62.2,53.8,46.0,61.6,50.1,45.5,98,88,72,29.89,29.73,12,5,0,0.37
2013-4-24,53.4,46.4,39.2,48.5,40.6,32.9,98,82,52,30.08,29.82,9,4,0,0.09
2013-4-25,60.1,49.2,38.8,38.5,34.1,30.6,80,58,35,30.18,30.03,10,4,0,0.00
2013-4-26,64.6,52.6,39.4,50.3,43.5,35.3,85,72,57,30.21,30.12,11,5,0,0.00
2013-4-27,56.1,51.7,45.9,52.4,49.1,44.0,98,91,76,30.15,29.78,13,4,0,0.37
2013-4-28,65.3,56.2,50.0,57.4,53.5,48.6,98,91,74,29.78,29.71,6,3,0,0.05
2013-4-29,75.7,61.9,44.1,63.5,55.5,43.6,98,81,62,29.78,29.60,14,6,0,0.00
2013-4-30,85.3,72.4,59.7,64.8,60.2,56.3,91,68,40,29.77,29.61,14,6,0,0.00
2013-5-1,84.2,71.0,54.5,61.6,57.3,53.4,96,66,36,29.92,29.78,11,3,0,0.00
2013-5-2,76.8,63.1,47.8,63.5,57.0,46.2,95,82,60,29.99,29.88,10,3,0,0.59
2013-5-3,61.9,52.0,46.4,61.3,51.3,45.6,98,97,95,29.92,29.61,8,3,0,1.35
2013-5-4,55.4,50.4,45.5,54.1,49.5,44.7,98,97,92,29.86,29.66,6,2,0,0.79
2013-5-5,65.5,56.9,49.5,59.0,54.7,49.0,98,93,72,29.86,29.74,10,4,0,0.28
2013-5-6,72.3,62.3,53.2,60.4,56.4,52.4,97,82,66,29.83,29.76,19,3,0,0.01
2013-5-7,80.2,68.2,58.1,60.0,54.8,47.9,93,66,34,29.88,29.77,7,2,0,0.00
2013-5-8,84.6,69.1,52.9,58.2,53.8,47.4,95,64,28,29.88,29.78,7,1,0,0.00
2013-5-9,68.4,63.6,60.1,65.3,61.4,57.7,97,93,86,29.84,29.65,9,3,0,1.07
2013-5-10,65.5,58.3,52.3,60.7,55.5,49.2,98,91,79,29.84,29.67,10,3,0,0.00
2013-5-11,67.1,56.4,45.3,56.9,44.3,32.3,91,67,37,29.97,29.78,14,4,0,0.00
2013-5-12,61.0,49.5,37.9,35.8,32.3,28.6,79,54,33,30.05,29.96,8,3,0,0.00
2013-5-13,72.1,57.2,39.4,45.1,38.2,30.3,86,54,23,30.06,29.88,8,2,0,0.00
2013-5-14,91.0,73.1,54.9,64.8,55.6,43.4,76,56,39,29.87,29.55,11,4,0,0.00
2013-5-15,90.1,78.6,67.3,65.8,60.8,54.8,74,55,41,29.72,29.58,9,3,0,0.00
2013-5-16,86.5,74.3,63.5,65.8,62.3,57.9,89,68,40,29.77,29.64,11,3,0,0.00
2013-5-17,80.8,69.8,59.9,67.0,62.9,57.2,93,80,58,29.81,29.74,9,3,0,0.00
2013-5-18,83.8,72.5,61.5,66.9,64.1,60.3,98,77,53,29.86,29.73,7,3,0,0.00
2013-5-19,88.9,77.4,63.9,74.5,69.0,62.4,96,77,59,29.76,29.54,14,6,0,0.00
2013-5-20,88.3,75.3,63.5,70.4,65.1,60.3,97,73,45,29.70,29.54,17,5,0,1.58
2013-5-21,83.7,72.6,63.1,70.7,65.2,61.9,97,79,61,29.66,29.49,13,5,0,0.32
2013-5-22,79.3,69.0,61.2,65.2,60.9,56.3,95,77,51,29.67,29.48,10,3,0,0.01
2013-5-23,63.3,59.7,51.4,59.9,53.9,47.4,91,81,70,30.10,29.67,11,4,0,0.01
2013-5-24,69.4,55.8,42.3,47.4,42.3,37.8,92,64,34,30.30,30.12,11,3,0,0.00
2013-5-25,58.5,53.6,48.7,52.4,47.9,42.6,93,82,69,30.28,30.07,10,4,0,0.50
2013-5-26,67.6,58.4,51.6,63.0,55.7,49.4,97,91,82,30.10,29.86,9,6,0,1.76
2013-5-27,80.1,67.2,62.6,71.0,64.6,62.0,98,92,70,29.89,29.61,10,3,0,1.24
2013-5-28,82.8,72.5,63.0,73.2,67.5,61.8,98,85,67,29.73,29.58,12,5,0,0.16
2013-5-29,87.6,76.0,63.7,72.0,67.0,61.1,95,75,58,29.79,29.67,14,6,0,0.06
2013-5-30,85.1,76.1,65.1,72.9,68.7,63.3,97,78,65,29.76,29.62,19,8,0,0.67
2013-5-31,78.1,70.3,63.7,73.4,67.7,62.7,97,92,76,29.75,29.57,13,5,0,1.88
2013-6-1,75.6,67.6,62.6,69.0,64.3,59.2,98,90,78,29.69,29.50,15,5,0,0.66
2013-6-2,67.5,62.5,59.4,60.2,58.0,54.2,97,85,77,29.88,29.68,7,3,0,0.00
2013-6-3,68.5,61.1,54.5,54.7,52.8,49.4,93,75,54,29.97,29.86,6,2,0,0.00
2013-6-4,73.4,63.9,52.0,59.6,55.7,50.5,96,76,59,29.96,29.85,8,3,0,0.00
2013-6-5,83.1,70.7,57.4,63.9,59.9,56.0,95,71,45,29.88,29.68,5,1,0,0.00
2013-6-6,78.4,69.5,60.6,63.7,61.0,56.7,88,75,58,29.71,29.65,9,4,0,0.00
2013-6-7,75.9,65.8,56.1,60.7,56.4,52.3,88,73,55,29.76,29.69,9,4,0,0.00
2013-6-8,83.5,69.6,54.3,59.9,56.5,51.9,93,66,41,29.82,29.74,7,2,0,0.00
2013-6-9,81.9,69.8,62.8,65.6,61.6,58.2,94,76,53,29.80,29.63,12,4,0,0.20
2013-6-10,80.1,70.0,63.3,66.2,63.2,61.5,97,80,59,29.75,29.60,7,2,0,0.00
2013-6-11,90.9,75.9,59.2,73.9,67.3,58.3,98,77,55,29.80,29.65,12,3,0,0.00
2013-6-12,95.5,84.5,70.7,75.7,73.1,69.5,97,71,50,29.75,29.48,12,4,0,0.00
2013-6-13,85.5,76.8,68.2,73.6,62.1,54.7,92,63,38,29.83,29.51,10,4,0,0.00
2013-6-14,82.8,72.1,58.6,60.9,58.2,54.9,91,64,44,29.95,29.78,6,2,0,0.00
2013-6-15,82.4,72.3,67.5,71.8,65.6,58.9,97,80,64,29.92,29.72,8,2,0,1.11
2013-6-16,83.5,74.0,66.7,73.9,69.7,66.0,98,87,71,29.85,29.74,8,2,0,0.04
2013-6-17,88.3,76.7,66.9,74.8,69.3,64.9,98,80,51,29.80,29.70,5,1,0,0.00
2013-6-18,88.2,75.5,62.8,72.5,65.2,59.2,97,73,47,29.83,29.73,10,3,0,0.00
2013-6-19,87.1,73.8,59.2,67.1,62.1,55.0,86,69,47,29.93,29.84,6,2,0,0.00
2013-6-20,91.4,79.2,65.1,72.0,66.9,63.9,97,69,42,29.98,29.88,7,3,0,0.00
2013-6-21,92.8,81.0,72.5,74.0,70.6,65.4,89,72,52,29.95,29.83,10,4,0,0.28
2013-6-22,93.2,77.2,68.0,76.6,70.3,65.1,92,80,55,29.93,29.83,13,4,0,0.00
2013-6-23,83.7,73.9,68.0,73.7,68.8,66.2,96,85,63,29.88,29.77,12,4,0,0.04
2013-6-24,91.0,77.6,67.3,77.1,71.1,66.1,96,82,61,29.94,29.74,10,4,0,0.00
2013-6-25,93.0,79.7,73.0,77.7,73.1,67.5,94,81,59,29.81,29.65,10,4,0,0.00
2013-6-26,82.9,75.4,70.0,77.8,73.1,69.1,98,93,79,29.71,29.53,8,2,0,0.65
2013-6-27,92.7,81.1,73.6,75.9,72.0,67.7,98,76,47,29.69,29.59,8,2,0,0.00
2013-6-28,87.6,78.5,68.2,70.0,64.6,58.7,96,66,41,29.66,29.50,11,3,0,0.00
2013-6-29,79.5,70.7,66.0,67.6,64.4,61.6,96,81,65,29.58,29.46,8,3,0,0.04
2013-6-30,75.2,68.5,61.9,67.7,62.6,52.4,96,82,56,29.76,29.58,9,4,0,0.27
2013-7-1,79.9,71.4,62.6,61.9,56.6,50.7,77,61,45,29.83,29.76,12,6,0,0.00
2013-7-2,72.5,66.9,63.3,63.7,59.2,57.4,85,77,62,29.88,29.79,9,4,0,0.02
2013-7-3,81.9,70.7,59.9,62.7,60.1,56.2,95,72,45,29.91,29.83,6,2,0,0.00
2013-7-4,86.4,74.2,61.2,67.0,62.9,59.6,95,71,47,29.94,29.85,6,2,0,0.00
2013-7-5,85.8,73.7,61.9,70.9,65.4,61.0,98,78,53,29.94,29.84,7,2,0,0.00
2013-7-6,87.6,73.9,64.8,73.2,68.0,64.2,98,84,56,29.90,29.81,6,2,0,0.00
2013-7-7,92.3,79.1,66.7,74.1,69.6,63.2,93,74,54,29.89,29.80,7,3,0,0.00
2013-7-8,87.4,79.5,73.9,78.4,73.2,69.8,89,81,70,29.93,29.82,7,2,0,0.01
2013-7-9,95.0,84.0,75.7,77.9,75.7,73.1,93,77,56,29.88,29.74,6,2,0,0.00
2013-7-10,87.4,80.0,71.4,77.4,72.6,65.5,98,79,59,29.84,29.69,11,3,0,0.90
2013-7-11,83.1,73.5,64.8,65.2,63.8,61.4,95,73,51,29.92,29.83,8,3,0,0.00
2013-7-12,84.6,71.0,56.8,63.3,59.7,55.7,97,71,41,29.99,29.88,6,1,0,0.00
2013-7-13,86.0,73.8,61.0,67.5,64.3,59.5,95,75,51,29.97,29.88,6,2,0,0.00
2013-7-14,91.0,78.1,64.9,74.1,69.7,64.2,98,77,53,30.01,29.92,5,2,0,0.00
2013-7-15,92.8,80.5,71.8,78.7,74.3,70.5,97,82,61,30.10,29.99,5,2,0,0.04
2013-7-16,92.7,82.1,70.9,77.0,73.7,70.3,98,78,54,30.16,30.08,6,1,0,0.00
2013-7-17,95.0,83.1,70.9,78.2,74.6,70.3,98,78,53,30.17,30.03,5,1,0,0.00
2013-7-18,96.1,84.6,72.5,78.7,75.5,71.6,98,76,54,30.05,29.84,6,2,0,0.00
2013-7-19,97.3,85.5,75.7,78.5,75.8,73.5,93,75,53,29.85,29.67,7,2,0,0.00
2013-7-20,89.2,81.1,72.5,77.6,72.4,68.6,93,76,57,29.76,29.66,7,3,0,0.00
2013-7-21,83.3,74.9,68.5,74.9,72.0,67.9,98,91,76,29.78,29.68,6,1,0,0.60
2013-7-22,89.8,78.1,67.3,75.5,71.6,66.7,98,82,58,29.70,29.59,7,1,0,0.00
2013-7-23,89.2,77.7,68.5,74.8,69.0,63.1,96,76,56,29.76,29.60,8,3,0,0.00
2013-7-24,77.4,68.3,59.0,63.2,58.3,55.3,92,72,50,29.87,29.76,8,3,0,0.00
2013-7-25,82.4,69.0,55.0,65.2,59.4,53.7,97,75,47,29.96,29.86,5,1,0,0.00
2013-7-26,74.7,68.2,59.5,70.5,64.4,57.5,98,88,77,29.89,29.75,8,2,0,0.36
2013-7-27,73.4,64.3,55.6,64.5,56.2,50.8,98,77,52,29.84,29.77,14,3,0,0.01
2013-7-28,77.7,64.0,48.6,58.2,53.8,47.6,98,72,48,29.89,29.82,5,1,0,0.00
2013-7-29,80.4,66.8,53.1,65.6,58.7,52.3,98,78,49,30.01,29.89,4,1,0,0.00
2013-7-30,74.1,68.8,65.5,70.4,66.6,62.8,98,93,85,29.97,29.85,10,3,0,0.46
2013-7-31,78.6,72.0,66.0,73.0,69.3,65.4,98,92,77,29.88,29.81,6,1,0,0.01
2013-8-1,85.6,73.0,64.0,70.0,65.4,63.4,98,80,53,29.89,29.81,5,1,0,0.00
2013-8-2,82.6,72.8,64.9,74.6,68.3,63.1,97,86,74,29.81,29.73,8,2,0,0.00
2013-8-3,85.3,74.5,65.3,70.1,66.4,61.6,98,78,52,29.95,29.76,8,3,0,0.00
2013-8-4,82.2,70.2,58.1,64.3,61.6,57.3,98,76,52,30.02,29.92,6,1,0,0.00
2013-8-5,80.1,69.1,57.2,67.3,63.3,56.4,98,83,63,29.94,29.70,9,3,0,0.00
2013-8-6,86.5,75.6,67.5,77.2,71.7,66.8,98,89,69,29.76,29.66,6,2,0,0.00
2013-8-7,87.3,76.5,68.5,77.6,73.1,67.9,98,90,73,29.75,29.65,6,2,0,0.00
2013-8-8,81.0,74.1,68.7,73.9,71.0,65.0,98,90,79,29.81,29.72,5,2,0,0.00
2013-8-9,83.8,72.7,61.7,68.2,64.9,60.0,94,78,54,29.90,29.80,6,1,0,0.00
2013-8-10,84.9,74.6,64.4,67.6,64.6,59.3,96,73,49,29.98,29.90,6,2,0,0.00
2013-8-11,86.5,71.9,57.2,67.3,62.6,55.7,97,75,51,29.99,29.88,6,1,0,0.00
2013-8-12,83.5,72.9,63.5,76.6,69.1,61.7,98,89,71,29.92,29.72,5,1,0,0.80
2013-8-13,77.5,68.3,59.2,68.3,62.0,52.8,98,81,59,29.99,29.77,8,4,0,0.00
2013-8-14,75.4,62.2,50.2,59.7,54.7,49.4,98,79,52,30.07,29.96,7,1,0,0.00
2013-8-15,76.6,63.8,52.5,59.9,55.9,51.6,98,78,51,30.03,29.91,6,1,0,0.00
2013-8-16,79.5,68.5,59.7,62.6,59.7,57.3,93,75,51,30.01,29.93,9,2,0,0.00
2013-8-17,80.8,67.6,55.9,64.0,59.7,55.1,98,78,51,30.06,29.96,6,2,0,0.00
2013-8-18,84.6,70.9,57.6,67.5,62.5,56.2,95,77,53,30.02,29.92,6,1,0,0.00
2013-8-19,87.6,73.2,59.9,71.4,66.0,59.3,98,81,54,29.97,29.86,5,1,0,0.00
2013-8-20,88.0,74.4,60.8,72.1,67.2,60.2,98,81,55,29.97,29.86,7,1,0,0.00
2013-8-21,91.2,76.7,64.8,74.6,69.1,64.2,98,80,52,29.95,29.85,6,2,0,0.00
2013-8-22,90.0,76.6,66.9,76.6,70.5,65.9,97,83,60,29.93,29.87,5,2,0,0.01
2013-8-23,88.5,76.0,67.6,72.9,69.7,66.7,98,83,56,29.98,29.90,6,2,0,0.16
2013-8-24,89.2,75.5,63.1,73.1,68.7,62.5,98,82,58,30.07,29.97,5,2,0,0.00
2013-8-25,91.2,76.2,62.6,71.9,67.2,61.1,96,76,49,30.12,30.01,7,2,0,0.00
2013-8-26,93.6,79.9,68.2,78.2,72.4,64.0,98,79,56,30.04,29.88,6,2,0,0.00
2013-8-27,93.9,81.4,70.9,77.2,72.9,70.0,98,78,52,29.90,29.77,6,1,0,0.00
2013-8-28,97.2,82.9,72.0,76.6,72.4,67.9,87,72,51,29.84,29.76,5,1,0,0.00
2013-8-29,90.9,79.9,71.4,79.5,75.1,70.8,98,86,67,29.89,29.79,5,1,0,0.00
2013-8-30,98.8,83.0,69.1,80.7,75.1,68.5,98,80,50,29.81,29.62,7,1,0,0.00
2013-8-31,97.9,84.4,72.5,80.5,74.7,64.8,95,74,55,29.68,29.52,8,3,0,0.00
2013-9-1,86.4,76.8,70.2,77.2,72.6,69.0,98,88,69,29.67,29.58,5,1,0,0.00
2013-9-2,84.2,73.9,64.8,68.6,63.8,58.9,90,72,53,29.81,29.67,8,3,0,0.00
2013-9-3,81.7,68.4,57.2,63.2,60.1,56.6,98,77,51,29.93,29.80,5,2,0,0.00
2013-9-4,86.9,69.7,54.0,66.6,60.7,53.2,98,76,45,30.01,29.90,6,1,0,0.00
2013-9-5,89.8,73.1,57.2,69.4,63.7,56.4,98,76,46,30.04,29.93,5,1,0,0.00
2013-9-6,88.5,74.2,62.1,70.7,65.9,61.3,98,78,51,30.02,29.83,5,1,0,0.00
2013-9-7,91.2,76.1,61.9,71.7,67.2,61.0,98,77,48,29.87,29.71,7,2,0,0.00
2013-9-8,86.2,76.6,70.9,75.7,72.1,68.4,98,87,67,29.79,29.69,5,2,0,0.34
2013-9-9,96.1,81.4,69.8,77.8,73.9,69.2,98,80,53,29.76,29.68,6,2,0,0.00
2013-9-10,97.3,82.3,69.8,75.9,71.9,68.6,97,74,44,29.88,29.76,8,2,0,0.00
2013-9-11,95.4,80.9,66.7,73.2,70.2,65.8,98,73,45,29.93,29.80,7,2,0,0.00
2013-9-12,83.7,73.9,63.5,71.7,64.6,53.4,98,75,43,29.89,29.78,8,3,0,0.52
2013-9-13,72.9,62.8,53.4,56.2,51.0,45.0,92,68,39,30.00,29.88,8,4,0,0.00
2013-9-14,75.6,58.7,45.0,53.8,48.7,43.9,96,73,41,30.03,29.87,5,1,0,0.00
2013-9-15,78.3,65.0,51.4,66.4,56.5,48.1,96,76,52,29.96,29.80,9,3,0,0.00
2013-9-16,70.7,62.4,55.2,59.0,56.5,52.3,95,82,62,30.14,29.97,9,4,0,0.00
2013-9-17,76.8,64.0,51.4,61.4,56.8,49.9,96,79,58,30.13,29.92,7,2,0,0.00
2013-9-18,87.1,72.9,60.3,72.9,67.0,57.8,96,83,62,29.93,29.75,10,4,0,0.00
2013-9-19,93.7,80.7,71.8,74.9,72.4,70.0,95,78,51,29.79,29.61,10,4,0,0.01
2013-9-20,77.7,68.9,58.1,73.5,65.3,53.3,98,89,74,29.73,29.66,7,2,0,0.14
2013-9-21,71.1,60.2,51.4,55.7,52.3,49.9,95,77,50,29.79,29.71,8,2,0,0.00
2013-9-22,75.6,60.0,47.1,55.6,51.0,46.0,97,75,46,29.89,29.77,7,1,0,0.00
2013-9-23,77.9,61.0,46.9,56.2,50.2,45.5,95,72,39,29.91,29.79,7,3,0,0.00
2013-9-24,81.3,64.4,47.8,63.0,56.4,46.7,97,77,54,29.83,29.66,6,2,0,0.00
2013-9-25,85.8,70.1,56.5,67.1,61.1,55.1,95,75,48,29.74,29.65,5,2,0,0.00
2013-9-26,86.5,69.7,55.8,66.9,59.4,53.8,94,72,45,29.86,29.72,7,2,0,0.00
2013-9-27,85.3,67.1,50.5,63.2,55.3,48.3,94,70,35,29.97,29.83,9,2,0,0.00
2013-9-28,84.2,69.5,53.4,66.0,60.4,51.6,97,75,51,29.90,29.74,14,4,0,0.01
2013-9-29,74.5,62.3,50.0,65.5,53.6,46.8,98,76,42,29.91,29.79,9,3,0,0.14
2013-9-30,79.9,61.8,45.5,63.4,55.5,43.9,98,82,50,29.85,29.71,10,2,0,0.00
2013-10-1,76.1,68.9,63.3,69.8,66.3,62.7,98,92,80,29.86,29.75,8,3,0,0.00
2013-10-2,86.2,73.3,64.2,73.1,68.9,63.6,98,87,61,29.91,29.79,7,2,0,0.00
2013-10-3,88.2,74.0,64.2,72.5,68.6,62.0,98,85,57,29.81,29.67,11,4,0,1.25
2013-10-4,89.4,75.4,66.2,73.9,69.4,65.6,98,83,56,29.81,29.71,8,4,0,0.01
2013-10-5,81.0,71.8,56.1,73.9,68.2,54.1,98,89,70,29.78,29.65,7,3,0,0.08
2013-10-6,61.7,53.3,48.7,54.9,47.1,42.0,96,80,60,29.69,29.63,9,3,0,0.01
2013-10-7,70.9,55.3,44.6,52.8,48.5,44.0,98,81,47,29.96,29.68,8,2,0,0.01
2013-10-8,79.5,60.4,44.4,54.9,49.1,43.3,97,71,36,30.05,29.94,8,1,0,0.00
2013-10-9,78.1,59.0,45.0,53.6,48.5,43.5,97,72,40,30.06,29.92,6,1,0,0.00
2013-10-10,80.6,63.1,48.4,65.1,55.7,46.8,98,79,49,30.01,29.83,5,1,0,0.00
2013-10-11,82.8,66.9,53.1,65.2,58.1,52.3,98,76,48,29.89,29.73,9,3,0,0.00
2013-10-12,77.0,65.0,52.5,66.2,58.2,44.8,96,79,60,30.03,29.77,6,2,0,0.01
2013-10-13,70.7,56.8,45.0,47.7,40.7,35.4,88,59,28,30.24,30.04,8,2,0,0.00
2013-10-14,72.5,55.1,39.0,48.9,42.5,36.8,93,65,33,30.22,29.91,7,2,0,0.00
2013-10-15,68.5,60.6,52.9,66.1,57.3,48.6,98,89,73,29.90,29.68,8,3,0,0.17
2013-10-16,57.0,50.7,42.6,49.9,45.0,40.9,94,81,68,29.85,29.77,5,1,0,0.00
2013-10-17,64.2,52.3,45.7,49.7,45.1,40.8,97,78,50,29.83,29.72,5,1,0,0.02
2013-10-18,58.8,49.2,40.6,45.7,42.3,38.5,96,78,56,29.89,29.76,7,2,0,0.00
2013-10-19,57.9,47.6,40.1,44.0,40.6,38.0,97,78,52,29.83,29.73,7,2,0,0.21
2013-10-20,71.4,54.8,37.2,48.0,43.2,35.1,94,68,42,29.76,29.63,16,4,0,0.00
2013-10-21,54.1,47.6,32.5,47.1,39.2,29.0,89,73,54,29.88,29.71,8,2,0,0.00
2013-10-22,49.1,40.1,30.0,45.7,37.4,28.2,95,90,75,29.89,29.63,11,3,0,0.10
2013-10-23,48.0,40.4,31.8,37.1,33.1,28.7,94,76,55,29.96,29.80,8,3,0,0.00
2013-10-24,44.4,37.7,27.7,36.5,27.9,22.8,91,69,49,30.23,29.93,11,3,0,0.00
2013-10-25,56.3,39.6,25.2,36.3,29.0,22.6,92,69,41,30.33,30.03,9,2,0,0.00
2013-10-26,63.1,47.2,36.9,43.5,34.0,28.8,77,61,40,30.04,29.81,11,4,0,0.00
2013-10-27,60.6,43.5,29.1,36.1,31.3,26.2,92,65,37,29.97,29.85,6,1,0,0.00
2013-10-28,67.6,47.6,30.2,42.5,34.3,26.5,88,64,33,30.12,29.90,6,1,0,0.00
2013-10-29,60.8,48.9,37.6,54.7,44.2,33.5,98,84,62,30.12,29.94,7,2,0,0.13
2013-10-30,69.1,61.1,53.1,66.8,60.4,52.5,98,98,92,29.93,29.66,10,4,0,0.36
2013-10-31,64.8,59.0,47.3,64.2,58.3,46.2,98,98,95,29.65,29.17,16,4,0,1.82
2013-11-1,56.3,48.5,40.6,48.2,44.6,39.3,98,87,67,29.65,29.41,6,2,0,0.00
2013-11-2,53.2,44.9,35.6,43.8,39.3,32.7,97,82,57,30.01,29.64,10,3,0,0.01
2013-11-3,57.6,42.9,28.2,41.2,34.6,26.7,97,75,43,30.15,30.01,9,2,0,0.00
2013-11-4,57.6,51.1,43.2,47.5,43.4,38.0,86,75,63,30.06,29.95,11,5,0,0.00
2013-11-5,58.1,54.6,51.1,54.2,51.4,47.2,98,89,82,30.12,29.83,11,5,0,0.21
2013-11-6,57.9,48.0,36.5,57.3,46.0,32.4,98,93,85,30.08,29.73,11,5,0,0.44
2013-11-7,53.8,39.4,28.4,42.4,32.1,26.1,94,76,52,30.19,30.08,7,2,0,0.00
2013-11-8,53.4,46.6,29.7,38.0,35.3,27.7,93,66,53,30.20,29.88,14,6,0,0.00
2013-11-9,66.4,51.7,41.4,47.3,40.0,35.7,82,66,42,30.07,29.83,14,3,0,0.00
2013-11-10,52.0,41.8,32.9,38.5,32.9,29.0,87,71,52,30.27,30.07,10,3,0,0.00
2013-11-11,60.1,42.5,28.0,49.5,37.4,22.9,95,83,68,30.37,29.95,12,4,0,0.08
2013-11-12,32.7,25.4,18.3,23.0,18.6,14.0,85,75,59,30.61,30.36,11,5,0,0.00
2013-11-13,44.1,29.6,16.0,24.2,19.8,13.1,89,69,41,30.53,30.10,9,3,0,0.00
2013-11-14,55.8,41.1,27.1,30.9,25.9,20.2,75,57,28,30.11,29.86,14,5,0,0.00
2013-11-15,54.7,45.5,37.9,42.8,35.8,29.6,88,69,53,29.89,29.77,9,4,0,0.00
2013-11-16,62.2,55.7,46.6,59.7,53.2,43.2,96,91,84,29.76,29.45,21,8,0,0.00
2013-11-17,75.6,61.0,45.1,68.8,55.4,41.8,98,83,53,29.76,29.12,18,8,0,0.80
2013-11-18,52.7,44.0,34.2,42.4,35.2,27.8,93,73,45,30.14,29.76,10,5,0,0.00
2013-11-19,46.2,35.1,26.8,32.2,28.6,24.0,91,78,55,30.20,30.07,8,4,0,0.00
2013-11-20,44.1,37.2,28.0,40.4,33.3,25.5,93,86,71,30.09,29.88,14,5,0,0.19
2013-11-21,50.2,47.9,42.6,48.2,45.9,40.4,98,93,84,30.05,29.92,9,2,0,0.27
2013-11-22,47.1,38.2,28.8,46.6,35.9,26.8,98,91,82,30.37,30.04,14,6,0,0.12
2013-11-23,28.8,24.0,15.4,26.6,16.8,8.6,92,74,61,30.57,30.35,17,7,0,0.00
2013-11-24,28.2,19.0,10.0,15.6,10.0,5.5,82,69,44,30.63,30.29,7,2,0,0.00
2013-11-25,35.1,30.2,23.9,23.7,20.3,15.3,72,66,59,30.27,29.99,9,4,0,0.00
2013-11-26,37.6,28.1,18.9,29.7,20.2,9.1,87,72,53,30.07,29.90,14,5,0,0.00
2013-11-27,28.8,19.5,13.8,11.6,8.6,5.5,76,63,47,30.16,30.05,14,5,0,0.00
2013-11-28,41.4,28.7,16.2,26.1,18.5,10.0,76,66,52,30.35,30.05,9,4,0,0.00
2013-11-29,41.5,28.6,15.1,27.6,20.7,11.6,88,73,52,30.46,30.22,10,4,0,0.00
2013-11-30,54.9,39.4,30.4,37.2,31.0,25.6,91,73,50,30.22,29.92,9,3,0,0.00
2013-12-1,52.5,40.4,28.8,38.6,33.4,27.6,97,78,56,29.96,29.76,5,2,0,0.00
2013-12-2,47.7,38.6,31.1,43.1,35.7,29.2,98,89,81,29.76,29.51,9,4,0,0.00
2013-12-3,53.2,46.4,39.9,52.4,45.9,39.4,98,98,95,29.54,29.45,12,4,0,0.00
2013-12-4,61.9,50.3,38.7,58.3,48.5,35.7,98,94,82,29.66,29.32,13,5,0,0.00
2013-12-5,38.1,26.0,21.6,34.9,18.3,12.4,88,72,65,30.14,29.66,11,6,0,0.00
2013-12-6,21.6,18.4,12.4,12.8,9.3,5.1,72,67,62,30.43,30.13,10,6,0,0.00
2013-12-7,23.4,15.0,7.5,8.6,5.3,1.8,77,66,49,30.56,30.33,10,5,0,0.00
2013-12-8,27.0,22.5,16.3,24.2,18.7,8.5,94,85,68,30.32,29.84,13,6,0,0.00
2013-12-9,25.2,21.0,15.1,22.9,14.9,7.7,91,77,66,30.14,29.88,8,5,0,0.00
2013-12-10,32.2,19.0,6.8,17.5,9.8,0.9,83,68,51,30.15,30.00,12,3,0,0.00
2013-12-11,28.9,18.2,5.7,19.7,9.5,-5.5,83,69,48,30.49,30.10,13,5,0,0.00
2013-12-12,36.7,17.6,0.9,16.9,6.3,-6.8,76,62,43,30.49,30.08,10,3,0,0.00
2013-12-13,39.9,28.6,16.7,31.7,22.8,12.6,98,80,53,30.08,29.84,8,4,0,0.00
2013-12-14,34.7,30.8,23.7,33.9,29.2,20.4,98,94,87,29.93,29.70,12,5,0,0.16
2013-12-15,27.9,21.6,15.4,21.3,17.4,12.0,91,84,74,29.99,29.92,8,4,0,0.00
2013-12-16,27.0,21.6,17.2,23.1,19.0,14.3,95,90,83,29.96,29.84,9,4,0,0.00
2013-12-17,36.9,26.2,17.2,31.3,22.6,12.1,93,86,69,30.07,29.93,6,3,0,0.08
2013-12-18,39.7,28.2,12.2,34.2,21.8,8.6,88,77,60,30.08,29.74,14,5,0,0.14
2013-12-19,48.6,41.8,34.7,47.5,39.3,32.3,97,91,81,29.76,29.61,11,5,0,0.00
2013-12-20,63.3,47.2,31.6,59.7,45.4,30.1,98,94,86,29.70,29.50,9,4,0,0.01
2013-12-21,32.5,31.6,30.6,32.0,30.7,29.6,98,96,93,29.70,29.36,6,2,0,0.14
2013-12-22,33.6,30.8,23.2,33.1,29.4,19.6,98,95,86,30.08,29.42,7,3,0,0.11
2013-12-23,23.0,16.7,6.3,20.0,11.6,-1.1,88,80,69,30.40,30.09,9,5,0,0.00
2013-12-24,21.2,12.3,1.6,12.6,3.4,-5.0,75,67,59,30.46,30.19,12,5,0,0.00
2013-12-25,32.9,27.8,21.4,29.7,23.0,13.2,90,82,70,30.19,30.03,12,4,0,0.00
2013-12-26,44.1,32.1,18.9,31.3,26.2,17.0,92,80,59,30.20,30.05,9,3,0,0.00
2013-12-27,50.0,36.3,24.1,37.1,30.3,21.9,93,80,60,30.19,30.03,6,2,0,0.00
2013-12-28,55.9,41.3,32.5,41.3,33.8,28.8,88,76,54,30.06,29.75,11,4,0,0.00
2013-12-29,36.7,25.3,9.0,31.8,21.0,3.0,91,84,74,30.11,29.66,13,7,0,0.00
2013-12-30,21.7,12.1,1.9,12.1,2.8,-4.4,76,66,53,30.20,30.04,7,3,0,0.00
2013-12-31,33.8,25.8,16.5,24.3,17.7,10.4,87,71,59,30.24,29.99,9,4,0,0.00
2014-1-1,34.3,25.6,19.4,28.2,22.4,17.2,92,88,78,30.00,29.90,11,4,0,0.00
2014-1-2,19.2,14.0,3.9,16.8,9.3,-0.9,91,81,73,30.31,29.91,18,8,0,0.00